sensor_id;sensor_type;location;lat;lon;timestamp;P1;durP1;ratioP1;P2;durP2;ratioP2
30472;SDS011;17263;48.160;11.452;2023-08-31T00:01:54;2.30;;;2.10;;
30472;SDS011;17263;48.160;11.452;2023-08-31T00:04:20;2.33;;;2.13;;
30472;SDS011;17263;48.160;11.452;2023-08-31T00:06:46;2.27;;;2.00;;
30472;SDS011;17263;48.160;11.452;2023-08-31T00:09:13;2.00;;;1.87;;
30472;SDS011;17263;48.160;11.452;2023-08-31T00:11:39;2.10;;;1.90;;
30472;SDS011;17263;48.160;11.452;2023-08-31T00:14:05;1.83;;;1.73;;
30472;SDS011;17263;48.160;11.452;2023-08-31T00:16:31;2.30;;;2.10;;
30472;SDS011;17263;48.160;11.452;2023-08-31T00:18:58;3.30;;;2.30;;
30472;SDS011;17263;48.160;11.452;2023-08-31T00:21:27;2.40;;;2.20;;
30472;SDS011;17263;48.160;11.452;2023-08-31T00:23:57;3.40;;;2.30;;
30472;SDS011;17263;48.160;11.452;2023-08-31T00:26:23;2.30;;;2.10;;
30472;SDS011;17263;48.160;11.452;2023-08-31T00:28:49;2.07;;;1.90;;
30472;SDS011;17263;48.160;11.452;2023-08-31T00:31:16;2.27;;;2.07;;
30472;SDS011;17263;48.160;11.452;2023-08-31T00:33:42;2.20;;;1.90;;
30472;SDS011;17263;48.160;11.452;2023-08-31T00:36:08;3.13;;;2.37;;
30472;SDS011;17263;48.160;11.452;2023-08-31T00:38:34;4.40;;;2.40;;
30472;SDS011;17263;48.160;11.452;2023-08-31T00:41:01;2.30;;;2.10;;
30472;SDS011;17263;48.160;11.452;2023-08-31T00:43:27;3.93;;;2.53;;
30472;SDS011;17263;48.160;11.452;2023-08-31T00:45:55;3.30;;;2.30;;
30472;SDS011;17263;48.160;11.452;2023-08-31T00:48:24;3.10;;;2.67;;
30472;SDS011;17263;48.160;11.452;2023-08-31T00:50:50;2.57;;;2.20;;
30472;SDS011;17263;48.160;11.452;2023-08-31T00:53:17;2.43;;;2.03;;
30472;SDS011;17263;48.160;11.452;2023-08-31T00:55:44;3.63;;;2.07;;
30472;SDS011;17263;48.160;11.452;2023-08-31T00:58:10;2.40;;;2.20;;
30472;SDS011;17263;48.160;11.452;2023-08-31T01:06:24;2.30;;;2.10;;
30472;SDS011;17263;48.160;11.452;2023-08-31T01:09:02;2.50;;;2.30;;
30472;SDS011;17263;48.160;11.452;2023-08-31T01:12:03;4.57;;;2.53;;
30472;SDS011;17263;48.160;11.452;2023-08-31T01:15:04;2.50;;;2.30;;
30472;SDS011;17263;48.160;11.452;2023-08-31T01:17:28;2.90;;;2.40;;
30472;SDS011;17263;48.160;11.452;2023-08-31T01:19:57;2.33;;;2.13;;
30472;SDS011;17263;48.160;11.452;2023-08-31T01:22:30;2.20;;;2.00;;
30472;SDS011;17263;48.160;11.452;2023-08-31T01:25:06;3.83;;;2.57;;
30472;SDS011;17263;48.160;11.452;2023-08-31T01:27:35;2.40;;;2.20;;
30472;SDS011;17263;48.160;11.452;2023-08-31T01:30:02;2.40;;;2.20;;
30472;SDS011;17263;48.160;11.452;2023-08-31T01:32:30;2.30;;;2.10;;
30472;SDS011;17263;48.160;11.452;2023-08-31T01:34:56;3.60;;;2.50;;
30472;SDS011;17263;48.160;11.452;2023-08-31T01:37:28;2.60;;;2.40;;
30472;SDS011;17263;48.160;11.452;2023-08-31T01:40:01;2.50;;;2.30;;
30472;SDS011;17263;48.160;11.452;2023-08-31T01:42:31;2.40;;;2.13;;
30472;SDS011;17263;48.160;11.452;2023-08-31T01:44:59;2.50;;;2.30;;
30472;SDS011;17263;48.160;11.452;2023-08-31T01:47:27;2.60;;;2.40;;
30472;SDS011;17263;48.160;11.452;2023-08-31T01:49:53;2.60;;;2.40;;
30472;SDS011;17263;48.160;11.452;2023-08-31T01:52:19;2.50;;;2.30;;
30472;SDS011;17263;48.160;11.452;2023-08-31T01:54:45;2.40;;;2.20;;
30472;SDS011;17263;48.160;11.452;2023-08-31T01:57:11;2.80;;;2.60;;
30472;SDS011;17263;48.160;11.452;2023-08-31T01:59:38;5.20;;;2.43;;
30472;SDS011;17263;48.160;11.452;2023-08-31T02:02:04;2.50;;;2.30;;
30472;SDS011;17263;48.160;11.452;2023-08-31T02:04:30;2.40;;;2.20;;
30472;SDS011;17263;48.160;11.452;2023-08-31T02:06:56;2.37;;;2.17;;
30472;SDS011;17263;48.160;11.452;2023-08-31T02:09:23;2.97;;;2.40;;
30472;SDS011;17263;48.160;11.452;2023-08-31T02:11:49;2.20;;;2.00;;
30472;SDS011;17263;48.160;11.452;2023-08-31T02:14:15;2.70;;;2.27;;
30472;SDS011;17263;48.160;11.452;2023-08-31T02:16:41;2.60;;;2.37;;
30472;SDS011;17263;48.160;11.452;2023-08-31T02:19:07;2.50;;;2.30;;
30472;SDS011;17263;48.160;11.452;2023-08-31T02:21:33;2.50;;;2.30;;
30472;SDS011;17263;48.160;11.452;2023-08-31T02:23:59;2.80;;;2.20;;
30472;SDS011;17263;48.160;11.452;2023-08-31T02:26:25;3.10;;;2.53;;
30472;SDS011;17263;48.160;11.452;2023-08-31T02:28:51;3.03;;;2.83;;
30472;SDS011;17263;48.160;11.452;2023-08-31T02:31:17;4.70;;;3.13;;
30472;SDS011;17263;48.160;11.452;2023-08-31T02:33:45;5.10;;;3.80;;
30472;SDS011;17263;48.160;11.452;2023-08-31T02:36:12;4.47;;;2.93;;
30472;SDS011;17263;48.160;11.452;2023-08-31T02:38:38;4.37;;;3.23;;
30472;SDS011;17263;48.160;11.452;2023-08-31T02:41:04;3.57;;;3.27;;
30472;SDS011;17263;48.160;11.452;2023-08-31T02:43:30;4.70;;;3.80;;
30472;SDS011;17263;48.160;11.452;2023-08-31T02:46:00;4.17;;;3.53;;
30472;SDS011;17263;48.160;11.452;2023-08-31T02:48:27;6.30;;;3.63;;
30472;SDS011;17263;48.160;11.452;2023-08-31T02:50:58;3.90;;;3.50;;
30472;SDS011;17263;48.160;11.452;2023-08-31T02:53:31;4.47;;;3.93;;
30472;SDS011;17263;48.160;11.452;2023-08-31T02:55:57;3.90;;;3.50;;
30472;SDS011;17263;48.160;11.452;2023-08-31T02:58:23;4.20;;;3.80;;
30472;SDS011;17263;48.160;11.452;2023-08-31T03:00:50;4.00;;;3.70;;
30472;SDS011;17263;48.160;11.452;2023-08-31T03:03:16;4.53;;;4.13;;
30472;SDS011;17263;48.160;11.452;2023-08-31T03:05:43;4.37;;;3.97;;
30472;SDS011;17263;48.160;11.452;2023-08-31T03:08:10;4.27;;;3.87;;
30472;SDS011;17263;48.160;11.452;2023-08-31T03:10:36;4.50;;;4.10;;
30472;SDS011;17263;48.160;11.452;2023-08-31T03:13:03;3.90;;;3.60;;
30472;SDS011;17263;48.160;11.452;2023-08-31T03:15:32;4.27;;;3.87;;
30472;SDS011;17263;48.160;11.452;2023-08-31T03:18:00;4.53;;;4.13;;
30472;SDS011;17263;48.160;11.452;2023-08-31T03:20:27;6.80;;;4.17;;
30472;SDS011;17263;48.160;11.452;2023-08-31T03:22:53;5.73;;;3.57;;
30472;SDS011;17263;48.160;11.452;2023-08-31T03:25:20;4.17;;;3.77;;
30472;SDS011;17263;48.160;11.452;2023-08-31T03:27:47;3.87;;;3.57;;
30472;SDS011;17263;48.160;11.452;2023-08-31T03:30:14;3.90;;;3.60;;
30472;SDS011;17263;48.160;11.452;2023-08-31T03:32:40;4.30;;;3.90;;
30472;SDS011;17263;48.160;11.452;2023-08-31T03:35:08;4.17;;;3.77;;
30472;SDS011;17263;48.160;11.452;2023-08-31T03:37:34;4.53;;;4.03;;
30472;SDS011;17263;48.160;11.452;2023-08-31T03:40:01;3.70;;;3.40;;
30472;SDS011;17263;48.160;11.452;2023-08-31T03:42:31;3.90;;;3.50;;
30472;SDS011;17263;48.160;11.452;2023-08-31T03:45:02;4.40;;;3.70;;
30472;SDS011;17263;48.160;11.452;2023-08-31T03:47:32;4.03;;;3.63;;
30472;SDS011;17263;48.160;11.452;2023-08-31T03:49:59;3.33;;;3.03;;
30472;SDS011;17263;48.160;11.452;2023-08-31T03:52:29;3.70;;;3.40;;
30472;SDS011;17263;48.160;11.452;2023-08-31T03:54:56;3.97;;;3.53;;
30472;SDS011;17263;48.160;11.452;2023-08-31T03:57:23;3.57;;;3.27;;
30472;SDS011;17263;48.160;11.452;2023-08-31T03:59:49;4.47;;;3.13;;
30472;SDS011;17263;48.160;11.452;2023-08-31T04:02:19;3.73;;;3.43;;
30472;SDS011;17263;48.160;11.452;2023-08-31T04:04:45;3.47;;;3.17;;
30472;SDS011;17263;48.160;11.452;2023-08-31T04:07:12;4.80;;;3.43;;
30472;SDS011;17263;48.160;11.452;2023-08-31T04:09:38;4.07;;;3.50;;
30472;SDS011;17263;48.160;11.452;2023-08-31T04:12:05;3.43;;;3.13;;
30472;SDS011;17263;48.160;11.452;2023-08-31T04:14:31;3.73;;;3.40;;
30472;SDS011;17263;48.160;11.452;2023-08-31T04:17:01;3.70;;;3.40;;
30472;SDS011;17263;48.160;11.452;2023-08-31T04:19:32;3.37;;;3.07;;
30472;SDS011;17263;48.160;11.452;2023-08-31T04:22:03;3.30;;;3.00;;
30472;SDS011;17263;48.160;11.452;2023-08-31T04:24:30;4.80;;;3.80;;
30472;SDS011;17263;48.160;11.452;2023-08-31T04:26:57;3.47;;;3.17;;
30472;SDS011;17263;48.160;11.452;2023-08-31T04:29:29;3.10;;;2.90;;
30472;SDS011;17263;48.160;11.452;2023-08-31T04:31:55;3.80;;;3.30;;
30472;SDS011;17263;48.160;11.452;2023-08-31T04:34:23;3.33;;;3.10;;
30472;SDS011;17263;48.160;11.452;2023-08-31T04:36:49;3.30;;;2.93;;
30472;SDS011;17263;48.160;11.452;2023-08-31T04:39:15;3.67;;;3.37;;
30472;SDS011;17263;48.160;11.452;2023-08-31T04:41:43;3.73;;;3.43;;
30472;SDS011;17263;48.160;11.452;2023-08-31T04:44:09;3.63;;;3.30;;
30472;SDS011;17263;48.160;11.452;2023-08-31T04:46:37;3.57;;;3.27;;
30472;SDS011;17263;48.160;11.452;2023-08-31T04:49:03;5.03;;;3.60;;
30472;SDS011;17263;48.160;11.452;2023-08-31T04:51:35;3.30;;;3.00;;
30472;SDS011;17263;48.160;11.452;2023-08-31T04:54:04;4.63;;;3.50;;
30472;SDS011;17263;48.160;11.452;2023-08-31T04:56:31;4.60;;;3.50;;
30472;SDS011;17263;48.160;11.452;2023-08-31T04:58:58;6.03;;;3.70;;
30472;SDS011;17263;48.160;11.452;2023-08-31T05:01:25;3.60;;;3.30;;
30472;SDS011;17263;48.160;11.452;2023-08-31T05:03:51;3.97;;;3.67;;
30472;SDS011;17263;48.160;11.452;2023-08-31T05:06:17;3.30;;;3.00;;
30472;SDS011;17263;48.160;11.452;2023-08-31T05:08:43;4.13;;;3.27;;
30472;SDS011;17263;48.160;11.452;2023-08-31T05:11:09;3.47;;;3.17;;
30472;SDS011;17263;48.160;11.452;2023-08-31T05:13:35;3.37;;;3.07;;
30472;SDS011;17263;48.160;11.452;2023-08-31T05:16:03;3.40;;;3.10;;
30472;SDS011;17263;48.160;11.452;2023-08-31T05:18:29;3.17;;;2.87;;
30472;SDS011;17263;48.160;11.452;2023-08-31T05:20:55;3.30;;;3.07;;
30472;SDS011;17263;48.160;11.452;2023-08-31T05:23:21;3.33;;;3.03;;
30472;SDS011;17263;48.160;11.452;2023-08-31T05:25:47;3.17;;;2.80;;
30472;SDS011;17263;48.160;11.452;2023-08-31T05:28:13;3.37;;;3.07;;
30472;SDS011;17263;48.160;11.452;2023-08-31T05:30:47;2.93;;;2.63;;
30472;SDS011;17263;48.160;11.452;2023-08-31T05:33:15;2.70;;;2.50;;
30472;SDS011;17263;48.160;11.452;2023-08-31T05:35:41;3.07;;;2.73;;
30472;SDS011;17263;48.160;11.452;2023-08-31T05:38:07;3.10;;;2.73;;
30472;SDS011;17263;48.160;11.452;2023-08-31T05:40:33;2.83;;;2.63;;
30472;SDS011;17263;48.160;11.452;2023-08-31T05:42:59;3.30;;;3.00;;
30472;SDS011;17263;48.160;11.452;2023-08-31T05:45:25;2.70;;;2.50;;
30472;SDS011;17263;48.160;11.452;2023-08-31T05:47:51;2.60;;;2.40;;
30472;SDS011;17263;48.160;11.452;2023-08-31T05:50:17;4.47;;;2.40;;
30472;SDS011;17263;48.160;11.452;2023-08-31T05:52:43;3.07;;;2.77;;
30472;SDS011;17263;48.160;11.452;2023-08-31T05:55:12;5.23;;;3.10;;
30472;SDS011;17263;48.160;11.452;2023-08-31T05:57:38;3.50;;;2.90;;
30472;SDS011;17263;48.160;11.452;2023-08-31T06:00:05;3.27;;;2.97;;
30472;SDS011;17263;48.160;11.452;2023-08-31T06:02:35;2.90;;;2.70;;
30472;SDS011;17263;48.160;11.452;2023-08-31T06:05:01;4.03;;;3.10;;
30472;SDS011;17263;48.160;11.452;2023-08-31T06:07:29;3.53;;;2.90;;
30472;SDS011;17263;48.160;11.452;2023-08-31T06:09:55;3.60;;;2.97;;
30472;SDS011;17263;48.160;11.452;2023-08-31T06:12:22;3.23;;;2.83;;
30472;SDS011;17263;48.160;11.452;2023-08-31T06:14:50;3.23;;;3.03;;
30472;SDS011;17263;48.160;11.452;2023-08-31T06:17:16;4.03;;;3.00;;
30472;SDS011;17263;48.160;11.452;2023-08-31T06:19:42;3.30;;;2.80;;
30472;SDS011;17263;48.160;11.452;2023-08-31T06:22:08;2.70;;;2.50;;
30472;SDS011;17263;48.160;11.452;2023-08-31T06:24:34;3.17;;;2.80;;
30472;SDS011;17263;48.160;11.452;2023-08-31T06:27:02;3.27;;;2.97;;
30472;SDS011;17263;48.160;11.452;2023-08-31T06:29:28;2.83;;;2.60;;
30472;SDS011;17263;48.160;11.452;2023-08-31T06:31:54;2.83;;;2.60;;
30472;SDS011;17263;48.160;11.452;2023-08-31T06:34:20;3.53;;;2.83;;
30472;SDS011;17263;48.160;11.452;2023-08-31T06:36:46;2.93;;;2.63;;
30472;SDS011;17263;48.160;11.452;2023-08-31T06:39:12;4.03;;;2.80;;
30472;SDS011;17263;48.160;11.452;2023-08-31T06:41:38;2.90;;;2.60;;
30472;SDS011;17263;48.160;11.452;2023-08-31T06:44:04;4.17;;;2.60;;
30472;SDS011;17263;48.160;11.452;2023-08-31T06:46:30;4.40;;;2.53;;
30472;SDS011;17263;48.160;11.452;2023-08-31T06:49:03;2.67;;;2.47;;
30472;SDS011;17263;48.160;11.452;2023-08-31T06:51:31;3.13;;;2.63;;
30472;SDS011;17263;48.160;11.452;2023-08-31T06:53:58;3.60;;;2.87;;
30472;SDS011;17263;48.160;11.452;2023-08-31T06:56:34;2.90;;;2.70;;
30472;SDS011;17263;48.160;11.452;2023-08-31T06:59:01;5.37;;;2.90;;
30472;SDS011;17263;48.160;11.452;2023-08-31T07:01:31;5.13;;;3.10;;
30472;SDS011;17263;48.160;11.452;2023-08-31T07:03:58;3.70;;;2.50;;
30472;SDS011;17263;48.160;11.452;2023-08-31T07:06:24;2.83;;;2.30;;
30472;SDS011;17263;48.160;11.452;2023-08-31T07:08:50;4.77;;;2.57;;
30472;SDS011;17263;48.160;11.452;2023-08-31T07:11:17;2.57;;;2.10;;
30472;SDS011;17263;48.160;11.452;2023-08-31T07:13:43;2.47;;;2.13;;
30472;SDS011;17263;48.160;11.452;2023-08-31T07:16:09;3.20;;;2.20;;
30472;SDS011;17263;48.160;11.452;2023-08-31T07:18:36;4.33;;;2.40;;
30472;SDS011;17263;48.160;11.452;2023-08-31T07:21:02;2.30;;;2.10;;
30472;SDS011;17263;48.160;11.452;2023-08-31T07:23:30;2.83;;;2.07;;
30472;SDS011;17263;48.160;11.452;2023-08-31T07:25:56;2.50;;;1.90;;
30472;SDS011;17263;48.160;11.452;2023-08-31T07:28:26;4.57;;;2.07;;
30472;SDS011;17263;48.160;11.452;2023-08-31T07:33:29;3.83;;;1.93;;
30472;SDS011;17263;48.160;11.452;2023-08-31T07:35:57;2.93;;;2.10;;
30472;SDS011;17263;48.160;11.452;2023-08-31T07:38:24;2.27;;;1.73;;
30472;SDS011;17263;48.160;11.452;2023-08-31T07:40:51;2.20;;;1.87;;
30472;SDS011;17263;48.160;11.452;2023-08-31T07:43:18;2.70;;;2.13;;
30472;SDS011;17263;48.160;11.452;2023-08-31T07:45:44;2.90;;;2.20;;
30472;SDS011;17263;48.160;11.452;2023-08-31T07:48:10;4.40;;;2.60;;
30472;SDS011;17263;48.160;11.452;2023-08-31T07:50:36;3.33;;;2.13;;
30472;SDS011;17263;48.160;11.452;2023-08-31T07:53:02;4.07;;;2.30;;
30472;SDS011;17263;48.160;11.452;2023-08-31T07:55:29;4.17;;;2.20;;
30472;SDS011;17263;48.160;11.452;2023-08-31T07:57:55;3.83;;;2.10;;
30472;SDS011;17263;48.160;11.452;2023-08-31T08:00:21;5.00;;;2.37;;
30472;SDS011;17263;48.160;11.452;2023-08-31T08:02:47;4.07;;;2.17;;
30472;SDS011;17263;48.160;11.452;2023-08-31T08:05:13;4.50;;;2.00;;
30472;SDS011;17263;48.160;11.452;2023-08-31T08:07:39;4.43;;;2.40;;
30472;SDS011;17263;48.160;11.452;2023-08-31T08:10:08;5.53;;;2.10;;
30472;SDS011;17263;48.160;11.452;2023-08-31T08:12:41;8.90;;;2.20;;
30472;SDS011;17263;48.160;11.452;2023-08-31T08:15:14;4.17;;;2.33;;
30472;SDS011;17263;48.160;11.452;2023-08-31T08:17:40;3.73;;;2.10;;
30472;SDS011;17263;48.160;11.452;2023-08-31T08:20:09;3.50;;;2.30;;
30472;SDS011;17263;48.160;11.452;2023-08-31T08:22:35;5.00;;;2.30;;
30472;SDS011;17263;48.160;11.452;2023-08-31T08:25:01;4.20;;;2.10;;
30472;SDS011;17263;48.160;11.452;2023-08-31T08:27:28;3.60;;;2.23;;
30472;SDS011;17263;48.160;11.452;2023-08-31T08:29:58;3.47;;;2.10;;
30472;SDS011;17263;48.160;11.452;2023-08-31T08:32:27;2.97;;;2.13;;
30472;SDS011;17263;48.160;11.452;2023-08-31T08:34:53;3.67;;;2.20;;
30472;SDS011;17263;48.160;11.452;2023-08-31T08:37:19;3.97;;;2.30;;
30472;SDS011;17263;48.160;11.452;2023-08-31T08:39:49;3.80;;;2.10;;
30472;SDS011;17263;48.160;11.452;2023-08-31T08:42:15;3.50;;;2.17;;
30472;SDS011;17263;48.160;11.452;2023-08-31T08:44:43;2.93;;;2.20;;
30472;SDS011;17263;48.160;11.452;2023-08-31T08:47:13;3.23;;;2.00;;
30472;SDS011;17263;48.160;11.452;2023-08-31T08:49:40;2.43;;;2.03;;
30472;SDS011;17263;48.160;11.452;2023-08-31T08:52:07;2.83;;;2.27;;
30472;SDS011;17263;48.160;11.452;2023-08-31T08:54:33;3.63;;;2.20;;
30472;SDS011;17263;48.160;11.452;2023-08-31T08:57:01;4.63;;;2.40;;
30472;SDS011;17263;48.160;11.452;2023-08-31T08:59:29;2.57;;;1.97;;
30472;SDS011;17263;48.160;11.452;2023-08-31T09:01:57;5.00;;;2.30;;
30472;SDS011;17263;48.160;11.452;2023-08-31T09:04:23;3.50;;;2.07;;
30472;SDS011;17263;48.160;11.452;2023-08-31T09:06:52;3.27;;;2.20;;
30472;SDS011;17263;48.160;11.452;2023-08-31T09:09:18;4.20;;;1.93;;
30472;SDS011;17263;48.160;11.452;2023-08-31T09:11:44;3.73;;;2.30;;
30472;SDS011;17263;48.160;11.452;2023-08-31T09:14:14;3.10;;;2.40;;
30472;SDS011;17263;48.160;11.452;2023-08-31T09:16:44;4.83;;;2.27;;
30472;SDS011;17263;48.160;11.452;2023-08-31T09:19:44;2.97;;;2.00;;
30472;SDS011;17263;48.160;11.452;2023-08-31T09:22:03;5.83;;;2.50;;
30472;SDS011;17263;48.160;11.452;2023-08-31T09:24:39;3.47;;;2.10;;
30472;SDS011;17263;48.160;11.452;2023-08-31T09:27:05;4.10;;;1.80;;
30472;SDS011;17263;48.160;11.452;2023-08-31T09:29:32;3.63;;;2.00;;
30472;SDS011;17263;48.160;11.452;2023-08-31T09:31:58;2.87;;;1.83;;
30472;SDS011;17263;48.160;11.452;2023-08-31T09:34:24;2.70;;;1.97;;
30472;SDS011;17263;48.160;11.452;2023-08-31T09:37:03;3.83;;;2.10;;
30472;SDS011;17263;48.160;11.452;2023-08-31T09:39:35;3.30;;;2.60;;
30472;SDS011;17263;48.160;11.452;2023-08-31T09:42:02;3.63;;;2.27;;
30472;SDS011;17263;48.160;11.452;2023-08-31T09:44:28;6.10;;;2.33;;
30472;SDS011;17263;48.160;11.452;2023-08-31T09:46:54;3.40;;;2.23;;
30472;SDS011;17263;48.160;11.452;2023-08-31T09:49:21;3.87;;;1.93;;
30472;SDS011;17263;48.160;11.452;2023-08-31T09:51:48;4.33;;;2.07;;
30472;SDS011;17263;48.160;11.452;2023-08-31T09:54:16;2.10;;;1.70;;
30472;SDS011;17263;48.160;11.452;2023-08-31T09:56:44;2.20;;;1.77;;
30472;SDS011;17263;48.160;11.452;2023-08-31T09:59:12;2.30;;;1.90;;
30472;SDS011;17263;48.160;11.452;2023-08-31T10:01:40;2.10;;;1.87;;
30472;SDS011;17263;48.160;11.452;2023-08-31T10:04:07;3.37;;;2.10;;
30472;SDS011;17263;48.160;11.452;2023-08-31T10:06:34;2.90;;;2.23;;
30472;SDS011;17263;48.160;11.452;2023-08-31T10:09:04;2.30;;;1.70;;
30472;SDS011;17263;48.160;11.452;2023-08-31T10:11:30;2.33;;;1.90;;
30472;SDS011;17263;48.160;11.452;2023-08-31T10:13:58;2.77;;;1.80;;
30472;SDS011;17263;48.160;11.452;2023-08-31T10:16:25;2.23;;;1.93;;
30472;SDS011;17263;48.160;11.452;2023-08-31T10:18:52;2.40;;;1.83;;
30472;SDS011;17263;48.160;11.452;2023-08-31T10:21:20;3.33;;;1.83;;
30472;SDS011;17263;48.160;11.452;2023-08-31T10:23:47;4.07;;;2.13;;
30472;SDS011;17263;48.160;11.452;2023-08-31T10:26:23;2.40;;;1.90;;
30472;SDS011;17263;48.160;11.452;2023-08-31T10:28:51;3.17;;;2.17;;
30472;SDS011;17263;48.160;11.452;2023-08-31T10:31:18;2.97;;;1.60;;
30472;SDS011;17263;48.160;11.452;2023-08-31T10:33:46;2.57;;;1.97;;
30472;SDS011;17263;48.160;11.452;2023-08-31T10:36:19;2.37;;;2.07;;
30472;SDS011;17263;48.160;11.452;2023-08-31T10:38:47;2.57;;;2.03;;
30472;SDS011;17263;48.160;11.452;2023-08-31T10:41:25;2.23;;;1.83;;
30472;SDS011;17263;48.160;11.452;2023-08-31T10:43:58;3.87;;;1.80;;
30472;SDS011;17263;48.160;11.452;2023-08-31T10:46:35;3.67;;;2.00;;
30472;SDS011;17263;48.160;11.452;2023-08-31T10:51:37;3.40;;;2.60;;
30472;SDS011;17263;48.160;11.452;2023-08-31T11:05:15;3.87;;;2.77;;
30472;SDS011;17263;48.160;11.452;2023-08-31T11:07:42;17.33;;;3.97;;
30472;SDS011;17263;48.160;11.452;2023-08-31T11:12:38;15.00;;;4.00;;
30472;SDS011;17263;48.160;11.452;2023-08-31T11:15:05;6.27;;;3.00;;
30472;SDS011;17263;48.160;11.452;2023-08-31T11:17:32;7.97;;;4.40;;
30472;SDS011;17263;48.160;11.452;2023-08-31T11:19:58;4.53;;;2.47;;
30472;SDS011;17263;48.160;11.452;2023-08-31T11:22:25;4.57;;;2.60;;
30472;SDS011;17263;48.160;11.452;2023-08-31T11:24:52;6.70;;;2.90;;
30472;SDS011;17263;48.160;11.452;2023-08-31T11:27:19;4.50;;;2.53;;
30472;SDS011;17263;48.160;11.452;2023-08-31T11:29:46;3.87;;;2.67;;
30472;SDS011;17263;48.160;11.452;2023-08-31T11:32:12;3.60;;;2.47;;
30472;SDS011;17263;48.160;11.452;2023-08-31T11:34:43;5.37;;;2.87;;
30472;SDS011;17263;48.160;11.452;2023-08-31T11:37:11;5.23;;;2.47;;
30472;SDS011;17263;48.160;11.452;2023-08-31T11:39:50;3.33;;;2.40;;
30472;SDS011;17263;48.160;11.452;2023-08-31T11:42:17;4.47;;;2.57;;
30472;SDS011;17263;48.160;11.452;2023-08-31T11:44:46;4.20;;;2.80;;
30472;SDS011;17263;48.160;11.452;2023-08-31T11:47:13;6.43;;;2.87;;
30472;SDS011;17263;48.160;11.452;2023-08-31T11:49:41;6.40;;;2.70;;
30472;SDS011;17263;48.160;11.452;2023-08-31T11:52:09;5.77;;;2.83;;
30472;SDS011;17263;48.160;11.452;2023-08-31T11:54:37;3.83;;;2.37;;
30472;SDS011;17263;48.160;11.452;2023-08-31T11:57:07;4.10;;;2.23;;
30472;SDS011;17263;48.160;11.452;2023-08-31T11:59:35;3.17;;;2.20;;
30472;SDS011;17263;48.160;11.452;2023-08-31T12:02:04;8.53;;;4.83;;
30472;SDS011;17263;48.160;11.452;2023-08-31T12:04:32;5.50;;;3.80;;
30472;SDS011;17263;48.160;11.452;2023-08-31T12:07:02;4.83;;;2.30;;
30472;SDS011;17263;48.160;11.452;2023-08-31T12:09:32;4.77;;;2.17;;
30472;SDS011;17263;48.160;11.452;2023-08-31T12:11:58;4.70;;;2.23;;
30472;SDS011;17263;48.160;11.452;2023-08-31T12:14:25;3.80;;;2.20;;
30472;SDS011;17263;48.160;11.452;2023-08-31T12:16:53;4.20;;;2.00;;
30472;SDS011;17263;48.160;11.452;2023-08-31T12:19:27;2.30;;;2.03;;
30472;SDS011;17263;48.160;11.452;2023-08-31T12:21:56;2.77;;;1.87;;
30472;SDS011;17263;48.160;11.452;2023-08-31T12:24:23;3.20;;;2.20;;
30472;SDS011;17263;48.160;11.452;2023-08-31T12:26:49;3.80;;;2.07;;
30472;SDS011;17263;48.160;11.452;2023-08-31T12:29:16;2.27;;;1.80;;
30472;SDS011;17263;48.160;11.452;2023-08-31T12:31:42;4.37;;;2.40;;
30472;SDS011;17263;48.160;11.452;2023-08-31T12:34:09;3.40;;;2.30;;
30472;SDS011;17263;48.160;11.452;2023-08-31T12:36:35;6.13;;;2.17;;
30472;SDS011;17263;48.160;11.452;2023-08-31T12:39:06;2.93;;;2.03;;
30472;SDS011;17263;48.160;11.452;2023-08-31T12:41:35;2.50;;;2.00;;
30472;SDS011;17263;48.160;11.452;2023-08-31T12:44:02;3.47;;;2.10;;
30472;SDS011;17263;48.160;11.452;2023-08-31T12:46:31;5.33;;;2.20;;
30472;SDS011;17263;48.160;11.452;2023-08-31T12:48:57;6.13;;;4.43;;
30472;SDS011;17263;48.160;11.452;2023-08-31T12:51:24;4.83;;;3.30;;
30472;SDS011;17263;48.160;11.452;2023-08-31T12:53:50;5.20;;;2.23;;
30472;SDS011;17263;48.160;11.452;2023-08-31T12:56:16;3.87;;;2.43;;
30472;SDS011;17263;48.160;11.452;2023-08-31T12:58:53;2.43;;;2.00;;
30472;SDS011;17263;48.160;11.452;2023-08-31T13:01:20;3.43;;;2.17;;
30472;SDS011;17263;48.160;11.452;2023-08-31T13:03:46;3.93;;;2.10;;
30472;SDS011;17263;48.160;11.452;2023-08-31T13:06:13;3.23;;;2.30;;
30472;SDS011;17263;48.160;11.452;2023-08-31T13:08:39;3.37;;;2.30;;
30472;SDS011;17263;48.160;11.452;2023-08-31T13:11:05;4.70;;;2.27;;
30472;SDS011;17263;48.160;11.452;2023-08-31T13:13:32;4.97;;;2.17;;
30472;SDS011;17263;48.160;11.452;2023-08-31T13:15:58;5.90;;;2.07;;
30472;SDS011;17263;48.160;11.452;2023-08-31T13:18:24;6.57;;;2.30;;
30472;SDS011;17263;48.160;11.452;2023-08-31T13:20:53;4.50;;;2.33;;
30472;SDS011;17263;48.160;11.452;2023-08-31T13:23:20;5.00;;;2.30;;
30472;SDS011;17263;48.160;11.452;2023-08-31T13:25:47;3.20;;;2.00;;
30472;SDS011;17263;48.160;11.452;2023-08-31T13:28:15;3.27;;;2.10;;
30472;SDS011;17263;48.160;11.452;2023-08-31T13:30:41;3.70;;;2.43;;
30472;SDS011;17263;48.160;11.452;2023-08-31T13:33:08;6.70;;;2.10;;
30472;SDS011;17263;48.160;11.452;2023-08-31T13:35:34;5.53;;;2.40;;
30472;SDS011;17263;48.160;11.452;2023-08-31T13:38:01;4.03;;;2.83;;
30472;SDS011;17263;48.160;11.452;2023-08-31T13:40:28;2.93;;;2.30;;
30472;SDS011;17263;48.160;11.452;2023-08-31T13:42:55;8.97;;;2.53;;
30472;SDS011;17263;48.160;11.452;2023-08-31T13:45:24;3.37;;;2.00;;
30472;SDS011;17263;48.160;11.452;2023-08-31T13:47:51;4.40;;;2.50;;
30472;SDS011;17263;48.160;11.452;2023-08-31T13:50:17;5.23;;;2.20;;
30472;SDS011;17263;48.160;11.452;2023-08-31T13:52:44;4.50;;;2.07;;
30472;SDS011;17263;48.160;11.452;2023-08-31T13:55:10;5.20;;;2.03;;
30472;SDS011;17263;48.160;11.452;2023-08-31T13:57:37;3.20;;;2.30;;
30472;SDS011;17263;48.160;11.452;2023-08-31T14:00:04;3.93;;;1.97;;
30472;SDS011;17263;48.160;11.452;2023-08-31T14:02:34;3.63;;;1.97;;
30472;SDS011;17263;48.160;11.452;2023-08-31T14:05:06;4.83;;;2.13;;
30472;SDS011;17263;48.160;11.452;2023-08-31T14:07:34;4.37;;;2.10;;
30472;SDS011;17263;48.160;11.452;2023-08-31T14:10:01;3.57;;;1.97;;
30472;SDS011;17263;48.160;11.452;2023-08-31T14:12:30;3.87;;;2.20;;
30472;SDS011;17263;48.160;11.452;2023-08-31T14:14:57;3.30;;;2.27;;
30472;SDS011;17263;48.160;11.452;2023-08-31T14:17:23;3.60;;;2.03;;
30472;SDS011;17263;48.160;11.452;2023-08-31T14:19:49;3.70;;;2.10;;
30472;SDS011;17263;48.160;11.452;2023-08-31T14:22:15;3.33;;;2.20;;
30472;SDS011;17263;48.160;11.452;2023-08-31T14:24:42;6.17;;;2.97;;
30472;SDS011;17263;48.160;11.452;2023-08-31T14:27:16;3.67;;;2.60;;
30472;SDS011;17263;48.160;11.452;2023-08-31T14:29:42;6.67;;;2.17;;
30472;SDS011;17263;48.160;11.452;2023-08-31T14:32:08;4.30;;;2.30;;
30472;SDS011;17263;48.160;11.452;2023-08-31T14:34:34;4.03;;;2.60;;
30472;SDS011;17263;48.160;11.452;2023-08-31T14:37:00;3.60;;;1.83;;
30472;SDS011;17263;48.160;11.452;2023-08-31T14:39:26;3.10;;;2.10;;
30472;SDS011;17263;48.160;11.452;2023-08-31T14:41:55;2.83;;;2.10;;
30472;SDS011;17263;48.160;11.452;2023-08-31T14:44:23;3.00;;;2.10;;
30472;SDS011;17263;48.160;11.452;2023-08-31T14:46:49;2.33;;;1.90;;
30472;SDS011;17263;48.160;11.452;2023-08-31T14:49:15;2.27;;;2.00;;
30472;SDS011;17263;48.160;11.452;2023-08-31T14:51:41;4.73;;;2.27;;
30472;SDS011;17263;48.160;11.452;2023-08-31T14:54:07;4.23;;;2.10;;
30472;SDS011;17263;48.160;11.452;2023-08-31T14:56:33;4.27;;;2.43;;
30472;SDS011;17263;48.160;11.452;2023-08-31T14:58:59;6.13;;;2.10;;
30472;SDS011;17263;48.160;11.452;2023-08-31T15:01:25;4.90;;;2.10;;